Time;durP1;ratioP1;P1;durP2;ratioP2;P2;SDS_P1;SDS_P2;PMS_P1;PMS_P2;Temp;Humidity;BMP_temperature;BMP_pressure;BME280_temperature;BME280_humidity;BME280_pressure;Samples;Min_cycle;Max_cycle;Signal;HPM_P1;HPM_P2
2021/10/08 00:01:57;;;;;;;12.93;7.50;;;;;;;4.59;64.30;101765.21;1685462;85;20957;-69
2021/10/08 00:04:23;;;;;;;13.95;7.65;;;;;;;4.59;64.30;101765.21;1657973;85;21027;-70
2021/10/08 00:06:49;;;;;;;9.18;7.12;;;;;;;4.54;64.56;101767.52;1631133;86;20996;-71
2021/10/08 00:09:16;;;;;;;11.08;7.67;;;;;;;4.50;64.44;101776.34;1666653;84;21157;-71
2021/10/08 00:11:42;;;;;;;13.22;7.85;;;;;;;4.43;64.92;101778.45;1694233;84;20944;-69
2021/10/08 00:14:08;;;;;;;10.72;7.55;;;;;;;4.37;64.98;101774.58;1697963;84;21078;-70
2021/10/08 00:16:35;;;;;;;17.75;11.78;;;;;;;4.33;65.05;101770.57;1698033;84;21050;-75
2021/10/08 00:19:04;;;;;;;10.75;7.85;;;;;;;4.31;65.18;101772.08;1689958;84;21042;-70
2021/10/08 00:21:30;;;;;;;13.58;8.55;;;;;;;4.27;65.32;101773.86;1668404;86;21077;-72
2021/10/08 00:23:56;;;;;;;10.43;7.92;;;;;;;4.19;65.55;101772.48;1660852;86;21099;-71
2021/10/08 00:26:23;;;;;;;15.55;9.05;;;;;;;4.15;65.67;101771.97;1682226;84;21028;-70
2021/10/08 00:28:49;;;;;;;12.30;8.38;;;;;;;4.13;65.76;101767.28;1657750;85;20962;-70
2021/10/08 00:31:15;;;;;;;18.27;8.00;;;;;;;4.16;65.76;101767.48;1664771;86;21073;-73
2021/10/08 00:33:42;;;;;;;12.65;8.20;;;;;;;4.12;66.03;101758.98;1678066;85;22633;-70
2021/10/08 00:36:08;;;;;;;12.35;7.83;;;;;;;4.08;66.14;101760.75;1676796;85;21049;-65
2021/10/08 00:38:36;;;;;;;11.57;7.08;;;;;;;4.05;66.39;101766.41;1650751;85;20956;-66
2021/10/08 00:41:04;;;;;;;18.92;7.60;;;;;;;4.04;66.29;101767.39;1650198;85;21078;-65
2021/10/08 00:43:32;;;;;;;8.38;7.12;;;;;;;4.05;66.28;101771.23;1649348;86;21072;-65
2021/10/08 00:45:58;;;;;;;9.75;7.47;;;;;;;4.03;66.32;101766.55;1671444;85;21498;-65
2021/10/08 00:48:25;;;;;;;12.45;8.10;;;;;;;4.01;66.30;101765.05;1661287;86;21089;-69
2021/10/08 00:50:51;;;;;;;15.85;9.03;;;;;;;3.99;66.35;101767.02;1664501;85;21142;-72
2021/10/08 00:53:18;;;;;;;12.50;10.08;;;;;;;3.97;66.40;101771.69;1681498;85;21573;-68
2021/10/08 00:55:50;;;;;;;16.05;7.42;;;;;;;3.96;66.51;101765.52;1632435;86;21094;-69
2021/10/08 00:58:19;;;;;;;10.50;7.37;;;;;;;3.94;66.44;101764.83;1632994;86;21110;-72
2021/10/08 01:00:47;;;;;;;10.88;7.83;;;;;;;3.95;66.32;101775.33;1669990;85;20965;-72
2021/10/08 01:03:13;;;;;;;15.15;8.13;;;;;;;3.94;66.52;101775.48;1650717;85;21501;-68
2021/10/08 01:05:41;;;;;;;11.05;7.85;;;;;;;3.89;66.62;101768.45;1678242;84;20953;-69
2021/10/08 01:08:09;;;;;;;10.88;7.25;;;;;;;3.89;66.63;101771.11;1695814;83;21001;-71
2021/10/08 01:10:41;;;;;;;11.08;7.15;;;;;;;3.86;66.71;101762.12;1676810;83;21557;-70
2021/10/08 01:13:09;;;;;;;12.20;9.13;;;;;;;3.86;66.80;101766.11;1692554;83;21015;-68
2021/10/08 01:15:36;;;;;;;12.18;8.88;;;;;;;3.84;66.84;101769.41;1690305;83;21490;-70
2021/10/08 01:18:03;;;;;;;11.00;8.20;;;;;;;3.83;66.90;101777.08;1689330;83;21044;-71
2021/10/08 01:20:30;;;;;;;9.88;7.17;;;;;;;3.81;66.95;101769.23;1692644;83;21095;-69
2021/10/08 01:22:58;;;;;;;9.95;7.30;;;;;;;3.82;66.96;101768.75;1717631;83;21104;-68
2021/10/08 01:25:27;;;;;;;11.85;8.78;;;;;;;3.84;66.93;101764.09;1771041;80;21525;-69
2021/10/08 01:27:54;;;;;;;13.18;8.25;;;;;;;3.84;66.85;101760.09;1700810;83;21004;-69
2021/10/08 01:30:23;;;;;;;9.45;7.22;;;;;;;3.85;66.83;101773.75;1705651;81;21064;-68
2021/10/08 01:32:50;;;;;;;11.38;8.28;;;;;;;3.86;66.77;101763.45;1648713;85;21660;-68
2021/10/08 01:35:18;;;;;;;13.58;8.00;;;;;;;3.88;66.71;101770.80;1695167;81;21776;-70
2021/10/08 01:37:45;;;;;;;10.60;9.38;;;;;;;3.85;66.74;101768.42;1740352;82;20942;-70
2021/10/08 01:40:12;;;;;;;13.13;9.43;;;;;;;3.79;67.03;101771.20;1742724;81;21060;-69
2021/10/08 01:42:42;;;;;;;14.65;9.35;;;;;;;3.80;66.92;101772.88;1755158;81;21646;-68
2021/10/08 01:45:10;;;;;;;11.05;8.78;;;;;;;3.79;66.97;101771.73;1725008;81;21023;-69
2021/10/08 01:47:37;;;;;;;14.75;9.40;;;;;;;3.76;67.14;101773.35;1754191;81;21142;-70
2021/10/08 01:50:06;;;;;;;11.88;8.30;;;;;;;3.70;67.18;101772.63;1753179;81;21560;-69
2021/10/08 01:52:34;;;;;;;9.65;7.65;;;;;;;3.67;67.38;101775.12;1740155;81;21035;-70
2021/10/08 01:55:01;;;;;;;8.98;7.97;;;;;;;3.64;67.55;101775.92;1718404;81;21048;-68
2021/10/08 01:57:30;;;;;;;11.05;9.18;;;;;;;3.61;67.58;101777.55;1660895;85;21538;-69
2021/10/08 01:59:57;;;;;;;14.30;9.68;;;;;;;3.60;67.55;101783.88;1660545;85;21094;-68
2021/10/08 02:02:24;;;;;;;13.43;8.93;;;;;;;3.59;67.63;101783.53;1687831;84;20965;-68
2021/10/08 02:04:50;;;;;;;13.22;10.90;;;;;;;3.57;67.62;101786.34;1696002;82;21111;-69
2021/10/08 02:07:17;;;;;;;10.95;9.03;;;;;;;3.56;67.75;101786.48;1674748;85;21031;-68
2021/10/08 02:09:44;;;;;;;21.50;10.13;;;;;;;3.53;67.86;101780.98;1709846;83;21038;-68
2021/10/08 02:12:10;;;;;;;11.35;8.03;;;;;;;3.53;67.75;101782.80;1636984;86;21186;-67
2021/10/08 02:14:38;;;;;;;11.55;8.78;;;;;;;3.55;67.71;101786.16;1722080;82;20945;-69
2021/10/08 02:17:05;;;;;;;12.93;8.40;;;;;;;3.57;67.68;101793.48;1730603;82;21056;-71
2021/10/08 02:19:32;;;;;;;13.68;9.45;;;;;;;3.55;67.80;101792.29;1723165;82;21016;-70
2021/10/08 02:22:02;;;;;;;13.88;8.20;;;;;;;3.54;67.76;101797.78;1744144;82;20969;-71
2021/10/08 02:24:31;;;;;;;16.48;10.30;;;;;;;3.54;67.73;101791.13;1647468;86;21243;-70
2021/10/08 02:26:58;;;;;;;11.55;8.58;;;;;;;3.52;67.79;101796.59;1680580;84;21538;-70
2021/10/08 02:29:26;;;;;;;17.20;11.03;;;;;;;3.49;68.03;101795.58;1670988;84;21055;-69
2021/10/08 02:31:53;;;;;;;13.28;9.30;;;;;;;3.45;68.08;101795.55;1680636;85;21100;-69
2021/10/08 02:34:20;;;;;;;15.85;10.18;;;;;;;3.42;68.11;101787.36;1684582;84;21621;-69
2021/10/08 02:36:46;;;;;;;12.90;10.30;;;;;;;3.41;68.32;101791.50;1706947;84;21107;-69
2021/10/08 02:39:13;;;;;;;14.98;9.38;;;;;;;3.36;68.35;101786.63;1744518;82;21005;-70
2021/10/08 02:41:40;;;;;;;11.75;9.95;;;;;;;3.34;68.48;101792.61;1701321;83;20905;-69
2021/10/08 02:44:07;;;;;;;13.20;9.53;;;;;;;3.34;68.41;101793.11;1715011;82;20956;-70
2021/10/08 02:46:35;;;;;;;14.98;10.40;;;;;;;3.32;68.73;101795.06;1701468;84;21093;-68
2021/10/08 02:49:02;;;;;;;8.98;7.62;;;;;;;3.27;68.83;101796.02;1709498;83;21742;-69
2021/10/08 02:51:33;;;;;;;15.18;9.80;;;;;;;3.28;68.79;101802.52;1687189;84;21053;-70
2021/10/08 02:53:57;;;;;;;10.98;9.23;;;;;;;3.26;68.95;101805.00;1681202;83;21001;-71
2021/10/08 02:56:24;;;;;;;15.75;9.20;;;;;;;3.24;68.98;101802.97;1677712;84;21029;-74
2021/10/08 02:58:51;;;;;;;12.13;9.13;;;;;;;3.20;69.23;101801.11;1744762;82;20993;-70
2021/10/08 03:01:18;;;;;;;19.42;10.60;;;;;;;3.18;69.42;101815.53;1728881;82;21189;-70
2021/10/08 03:03:45;;;;;;;12.75;9.50;;;;;;;3.17;69.30;101817.84;1703895;83;20992;-72
2021/10/08 03:06:12;;;;;;;13.28;9.18;;;;;;;3.14;69.55;101817.66;1653648;85;21133;-73
2021/10/08 03:08:40;;;;;;;12.88;8.83;;;;;;;3.09;69.78;101821.25;1679883;85;21053;-70
2021/10/08 03:11:07;;;;;;;13.18;9.20;;;;;;;3.08;69.76;101821.74;1661920;86;21025;-71
2021/10/08 03:13:33;;;;;;;17.32;10.58;;;;;;;3.10;69.78;101831.40;1682632;85;21080;-70
2021/10/08 03:16:00;;;;;;;14.33;11.12;;;;;;;3.10;69.73;101832.24;1674400;85;21013;-71
2021/10/08 03:18:27;;;;;;;12.37;8.83;;;;;;;3.12;69.66;101830.77;1674631;85;21494;-72
2021/10/08 03:20:54;;;;;;;15.78;9.75;;;;;;;3.12;69.63;101832.91;1675661;85;21104;-72
2021/10/08 03:23:20;;;;;;;18.48;9.83;;;;;;;3.07;69.86;101829.37;1681889;85;21035;-69
2021/10/08 03:25:46;;;;;;;15.70;10.38;;;;;;;3.05;69.99;101832.69;1643668;85;22298;-70
2021/10/08 03:28:14;;;;;;;12.40;10.35;;;;;;;2.99;70.21;101833.27;1680579;85;21021;-68
2021/10/08 03:30:41;;;;;;;13.95;9.15;;;;;;;2.98;70.28;101834.25;1684182;85;21095;-70
2021/10/08 03:33:08;;;;;;;13.72;9.83;;;;;;;2.98;70.41;101842.22;1656788;85;21248;-71
2021/10/08 03:35:34;;;;;;;11.90;10.50;;;;;;;2.93;70.61;101839.17;1683692;85;21064;-70
2021/10/08 03:38:08;;;;;;;14.55;11.20;;;;;;;2.94;70.67;101847.50;1683996;85;21235;-70
2021/10/08 03:40:31;;;;;;;13.28;10.50;;;;;;;2.92;70.98;101848.16;1686738;85;21560;-69
2021/10/08 03:43:00;;;;;;;15.55;9.50;;;;;;;2.91;71.06;101849.62;1688895;84;20944;-70
2021/10/08 03:45:31;;;;;;;16.45;11.38;;;;;;;2.91;71.17;101850.95;1688892;85;21118;-69
2021/10/08 03:48:02;;;;;;;15.23;10.65;;;;;;;2.93;71.02;101848.47;1676576;85;20971;-70
2021/10/08 03:50:24;;;;;;;16.73;9.73;;;;;;;2.92;71.12;101843.33;1664442;85;21172;-70
2021/10/08 03:52:50;;;;;;;13.25;10.53;;;;;;;2.88;71.31;101849.89;1660513;85;21593;-70
2021/10/08 03:55:17;;;;;;;12.82;9.88;;;;;;;2.89;71.31;101848.91;1658779;86;21005;-69
2021/10/08 03:57:43;;;;;;;14.93;12.35;;;;;;;2.89;71.44;101849.75;1681863;84;21052;-68
2021/10/08 04:00:10;;;;;;;13.05;10.90;;;;;;;2.86;71.60;101855.86;1658180;86;21029;-68
2021/10/08 04:02:42;;;;;;;18.25;11.35;;;;;;;2.86;71.52;101850.06;1641314;86;21228;-69
2021/10/08 04:05:10;;;;;;;12.60;9.73;;;;;;;2.87;71.72;101850.41;1657826;85;21020;-68
2021/10/08 04:07:37;;;;;;;14.28;9.73;;;;;;;2.88;71.73;101852.06;1621247;87;21029;-66
2021/10/08 04:10:07;;;;;;;18.67;11.93;;;;;;;2.89;71.77;101849.75;1644549;86;20987;-66
2021/10/08 04:12:34;;;;;;;14.78;12.18;;;;;;;2.88;71.78;101856.53;1629377;86;21500;-66
2021/10/08 04:15:01;;;;;;;13.38;10.78;;;;;;;2.90;71.73;101850.11;1701042;83;22199;-68
2021/10/08 04:17:27;;;;;;;16.35;10.53;;;;;;;2.92;71.79;101853.95;1630728;85;21555;-69
2021/10/08 04:19:53;;;;;;;14.90;10.95;;;;;;;2.87;71.96;101855.73;1646469;85;21082;-66
2021/10/08 04:22:20;;;;;;;15.53;12.43;;;;;;;2.86;72.09;101854.05;1623514;88;22210;-67
2021/10/08 04:24:47;;;;;;;17.10;10.08;;;;;;;2.88;72.06;101859.20;1604933;88;21156;-65
2021/10/08 04:27:14;;;;;;;22.90;11.83;;;;;;;2.88;72.08;101850.73;1631175;88;21207;-70
2021/10/08 04:29:41;;;;;;;12.35;10.15;;;;;;;2.90;72.02;101852.77;1604885;88;21006;-68
2021/10/08 04:32:07;;;;;;;19.70;12.63;;;;;;;2.89;72.04;101859.06;1631387;86;21066;-70
2021/10/08 04:34:34;;;;;;;16.77;10.53;;;;;;;2.90;72.06;101856.75;1621009;87;20939;-69
2021/10/08 04:37:00;;;;;;;20.90;13.32;;;;;;;2.90;72.16;101860.73;1649848;85;21064;-70
2021/10/08 04:39:27;;;;;;;21.30;13.90;;;;;;;2.89;72.32;101864.86;1658349;85;21094;-68
2021/10/08 04:41:53;;;;;;;19.05;11.73;;;;;;;2.88;72.38;101868.01;1672236;85;21045;-67
2021/10/08 04:44:20;;;;;;;17.65;13.65;;;;;;;2.90;72.35;101864.73;1717632;82;20975;-69
2021/10/08 04:46:47;;;;;;;19.42;12.88;;;;;;;2.92;72.37;101868.58;1718328;83;20975;-67
2021/10/08 04:49:13;;;;;;;15.88;12.55;;;;;;;2.93;72.32;101868.41;1693503;83;21004;-67
2021/10/08 04:51:40;;;;;;;19.73;12.65;;;;;;;2.95;72.33;101873.59;1698136;83;21199;-69
2021/10/08 04:54:07;;;;;;;19.73;12.20;;;;;;;2.97;72.28;101876.95;1672831;85;20952;-68
2021/10/08 04:56:35;;;;;;;17.90;12.05;;;;;;;2.98;72.35;101879.44;1650873;85;21016;-69
2021/10/08 04:59:02;;;;;;;21.17;13.22;;;;;;;2.99;72.32;101879.78;1631072;87;20960;-67
2021/10/08 05:01:30;;;;;;;21.55;14.68;;;;;;;3.01;72.27;101884.48;1621060;87;21072;-67
2021/10/08 05:03:57;;;;;;;30.15;13.38;;;;;;;2.97;72.38;101879.09;1643683;84;21814;-68
2021/10/08 05:06:23;;;;;;;18.87;12.63;;;;;;;2.96;72.48;101876.11;1668220;86;21116;-66
2021/10/08 05:08:54;;;;;;;17.95;12.40;;;;;;;2.99;72.40;101884.27;1668615;86;20977;-67
2021/10/08 05:11:22;;;;;;;17.07;11.55;;;;;;;3.03;72.38;101885.64;1668384;86;21021;-67
2021/10/08 05:13:49;;;;;;;21.90;12.40;;;;;;;3.08;72.34;101891.35;1668263;86;21495;-67
2021/10/08 05:16:15;;;;;;;25.77;15.55;;;;;;;3.14;72.23;101891.27;1643558;86;21336;-67
2021/10/08 05:18:42;;;;;;;18.82;13.25;;;;;;;3.15;72.18;101892.95;1657045;86;21576;-70
2021/10/08 05:21:12;;;;;;;15.23;10.72;;;;;;;3.20;72.16;101895.51;1657800;86;21049;-67
2021/10/08 05:23:38;;;;;;;25.17;14.35;;;;;;;3.22;72.13;101896.19;1642972;86;21036;-67
2021/10/08 05:26:04;;;;;;;19.15;13.62;;;;;;;3.25;72.06;101889.75;1631292;85;21582;-68
2021/10/08 05:28:31;;;;;;;20.95;12.55;;;;;;;3.23;72.07;101889.05;1643810;86;21022;-66
2021/10/08 05:30:58;;;;;;;20.27;13.10;;;;;;;3.24;72.00;101890.72;1647867;86;20966;-68
2021/10/08 05:33:25;;;;;;;17.95;13.48;;;;;;;3.26;71.98;101897.55;1644764;86;21062;-68
2021/10/08 05:35:51;;;;;;;20.57;13.10;;;;;;;3.27;72.03;101886.42;1653637;86;21536;-68
2021/10/08 05:38:18;;;;;;;18.07;12.25;;;;;;;3.29;71.96;101893.29;1668644;86;21479;-67
2021/10/08 05:40:47;;;;;;;18.55;13.95;;;;;;;3.35;71.83;101891.86;1643087;86;21787;-66
2021/10/08 05:43:15;;;;;;;17.27;12.95;;;;;;;3.36;71.71;101889.52;1672638;84;22238;-66
2021/10/08 05:45:43;;;;;;;20.45;13.05;;;;;;;3.42;71.61;101892.92;1671777;84;21511;-67
2021/10/08 05:48:09;;;;;;;31.23;13.65;;;;;;;3.47;71.42;101890.66;1672372;84;21507;-68
2021/10/08 05:50:38;;;;;;;18.27;11.35;;;;;;;3.54;71.22;101890.91;1697654;84;21030;-71
2021/10/08 05:53:06;;;;;;;23.83;13.20;;;;;;;3.58;70.93;101892.27;1671840;84;21300;-67
2021/10/08 05:55:33;;;;;;;18.50;11.73;;;;;;;3.64;70.83;101897.00;1649036;84;21500;-67
2021/10/08 05:58:00;;;;;;;16.02;13.55;;;;;;;3.69;70.65;101892.91;1674581;84;21046;-66
2021/10/08 06:00:26;;;;;;;20.57;13.28;;;;;;;3.76;70.51;101892.62;1669836;85;21495;-67
2021/10/08 06:02:53;;;;;;;30.10;13.85;;;;;;;3.81;70.31;101900.16;1645381;84;21598;-67
2021/10/08 06:05:21;;;;;;;18.20;13.28;;;;;;;3.86;70.09;101895.21;1701293;83;21172;-67
2021/10/08 06:07:49;;;;;;;16.35;11.80;;;;;;;3.91;69.96;101895.10;1666149;84;21017;-66
2021/10/08 06:10:17;;;;;;;18.37;13.05;;;;;;;3.99;69.74;101897.48;1688724;84;21085;-66
2021/10/08 06:12:43;;;;;;;15.90;11.80;;;;;;;4.02;69.54;101895.38;1688719;85;20913;-65
2021/10/08 06:15:11;;;;;;;18.95;13.85;;;;;;;4.07;69.36;101897.08;1683741;83;21106;-67
2021/10/08 06:17:39;;;;;;;20.40;14.73;;;;;;;4.12;69.25;101900.61;1705069;83;21143;-67
2021/10/08 06:20:07;;;;;;;22.22;14.43;;;;;;;4.16;69.01;101896.65;1705323;83;21497;-67
2021/10/08 06:22:36;;;;;;;21.57;12.88;;;;;;;4.21;69.05;101893.03;1716621;83;21581;-67
2021/10/08 06:25:05;;;;;;;19.57;12.18;;;;;;;4.27;69.05;101893.72;1667457;83;21024;-67
2021/10/08 06:27:32;;;;;;;18.65;13.15;;;;;;;4.35;68.94;101888.47;1678204;83;22198;-68
2021/10/08 06:29:59;;;;;;;19.17;12.25;;;;;;;4.44;68.71;101889.36;1713667;83;21949;-67
2021/10/08 06:32:25;;;;;;;14.98;11.43;;;;;;;4.50;68.49;101886.08;1704899;83;21061;-68
2021/10/08 06:34:52;;;;;;;15.63;12.33;;;;;;;4.57;68.15;101891.95;1708372;83;21049;-67
2021/10/08 06:37:18;;;;;;;17.85;12.53;;;;;;;4.66;67.85;101888.34;1700672;83;21029;-68
2021/10/08 06:39:45;;;;;;;20.30;12.13;;;;;;;4.74;67.57;101887.08;1691540;83;21127;-67
2021/10/08 06:42:11;;;;;;;21.68;12.88;;;;;;;4.83;67.49;101895.95;1688872;84;21224;-67
2021/10/08 06:44:39;;;;;;;23.92;13.60;;;;;;;4.91;67.44;101889.81;1688637;84;21523;-69
2021/10/08 06:47:06;;;;;;;20.00;11.93;;;;;;;5.01;67.24;101890.53;1688724;85;21120;-70
2021/10/08 06:49:33;;;;;;;20.12;12.70;;;;;;;5.11;67.00;101891.24;1714586;83;20985;-67
2021/10/08 06:52:00;;;;;;;18.45;10.65;;;;;;;5.19;66.49;101890.77;1704951;83;21021;-69
2021/10/08 06:54:27;;;;;;;21.85;11.63;;;;;;;5.28;66.10;101895.14;1716888;82;21047;-68
2021/10/08 06:56:54;;;;;;;15.88;10.28;;;;;;;5.36;65.82;101895.69;1717453;83;21084;-68
2021/10/08 06:59:22;;;;;;;13.75;9.80;;;;;;;5.45;65.49;101899.20;1693756;83;21028;-70
2021/10/08 07:01:48;;;;;;;20.32;12.47;;;;;;;5.53;65.32;101893.88;1693464;83;20991;-68
2021/10/08 07:04:15;;;;;;;17.40;10.98;;;;;;;5.62;65.09;101895.08;1716861;82;21573;-68
2021/10/08 07:06:43;;;;;;;19.02;10.53;;;;;;;5.73;64.53;101890.42;1677315;84;21061;-68
2021/10/08 07:09:11;;;;;;;16.23;10.75;;;;;;;5.84;64.07;101892.79;1678416;84;20960;-66
2021/10/08 07:11:38;;;;;;;15.35;11.05;;;;;;;5.94;64.04;101898.34;1703480;83;20953;-67
2021/10/08 07:14:05;;;;;;;16.80;11.03;;;;;;;6.04;63.92;101890.98;1678613;84;21008;-68
2021/10/08 07:16:32;;;;;;;14.63;10.18;;;;;;;6.16;63.29;101892.84;1686545;84;21022;-66
2021/10/08 07:19:07;;;;;;;11.95;8.73;;;;;;;6.27;62.79;101886.33;1676774;84;21057;-67
2021/10/08 07:21:28;;;;;;;13.22;9.23;;;;;;;6.38;62.14;101884.13;1673697;85;20984;-68
2021/10/08 07:23:55;;;;;;;12.55;10.58;;;;;;;6.50;60.85;101882.79;1674441;85;20933;-70
2021/10/08 07:26:22;;;;;;;18.60;10.68;;;;;;;6.60;59.17;101881.27;1646968;85;21538;-67
2021/10/08 07:28:48;;;;;;;13.72;9.23;;;;;;;6.76;59.50;101889.77;1658301;85;21024;-70
2021/10/08 07:31:15;;;;;;;15.40;8.20;;;;;;;6.86;59.37;101883.20;1674600;85;21069;-67
2021/10/08 07:33:41;;;;;;;13.40;8.65;;;;;;;6.97;58.79;101888.69;1674325;85;22267;-69
2021/10/08 07:36:07;;;;;;;12.80;8.93;;;;;;;7.09;58.10;101885.14;1685204;85;21017;-67
2021/10/08 07:38:34;;;;;;;17.30;9.05;;;;;;;7.17;57.52;101889.12;1645111;86;21030;-69
2021/10/08 07:41:00;;;;;;;15.45;8.50;;;;;;;7.22;57.26;101886.25;1656504;86;21121;-69
2021/10/08 07:43:26;;;;;;;12.80;8.35;;;;;;;7.28;57.24;101890.08;1664531;85;21810;-66
2021/10/08 07:45:53;;;;;;;12.23;7.75;;;;;;;7.35;57.22;101894.55;1670797;84;21030;-68
2021/10/08 07:48:19;;;;;;;16.17;8.98;;;;;;;7.41;55.77;101893.02;1676592;84;20939;-68
2021/10/08 07:50:45;;;;;;;14.30;8.58;;;;;;;7.48;56.08;101887.81;1703307;84;20970;-74
2021/10/08 07:53:11;;;;;;;15.75;8.03;;;;;;;7.54;56.38;101885.75;1702850;83;20977;-68
2021/10/08 07:55:38;;;;;;;10.23;7.70;;;;;;;7.61;56.06;101886.22;1702063;84;23192;-67
2021/10/08 07:58:04;;;;;;;18.45;10.32;;;;;;;7.70;56.32;101886.50;1689583;83;20926;-68
2021/10/08 08:00:31;;;;;;;16.75;9.30;;;;;;;7.80;56.24;101882.25;1658644;85;21017;-67
2021/10/08 08:02:58;;;;;;;21.17;8.93;;;;;;;7.88;55.34;101882.17;1636855;85;21515;-69
2021/10/08 08:05:24;;;;;;;10.88;8.68;;;;;;;7.97;55.02;101881.61;1658694;85;21146;-69
2021/10/08 08:07:51;;;;;;;14.55;10.65;;;;;;;8.04;54.82;101884.75;1636458;85;21095;-68
2021/10/08 08:10:17;;;;;;;23.52;10.08;;;;;;;8.10;54.02;101885.88;1674528;85;21016;-68
2021/10/08 08:12:44;;;;;;;15.38;9.30;;;;;;;8.13;53.57;101889.03;1658819;85;21019;-68
2021/10/08 08:15:11;;;;;;;11.78;9.25;;;;;;;8.16;53.36;101885.14;1696760;84;21045;-68
2021/10/08 08:17:38;;;;;;;13.78;8.23;;;;;;;8.22;52.82;101888.45;1692185;83;21073;-68
2021/10/08 08:20:06;;;;;;;10.85;8.75;;;;;;;8.28;52.53;101885.05;1674627;85;21985;-68
2021/10/08 08:22:33;;;;;;;17.30;8.85;;;;;;;8.34;52.65;101889.73;1658828;85;21102;-67
2021/10/08 08:24:59;;;;;;;15.28;8.68;;;;;;;8.38;52.71;101888.85;1676336;84;21132;-67
2021/10/08 08:27:25;;;;;;;17.05;7.87;;;;;;;8.45;52.46;101884.41;1658622;85;21021;-68
2021/10/08 08:29:52;;;;;;;15.95;7.70;;;;;;;8.50;51.63;101880.67;1674534;85;21014;-68
2021/10/08 08:32:18;;;;;;;17.32;8.18;;;;;;;8.57;51.13;101886.99;1674884;84;21122;-70
2021/10/08 08:34:45;;;;;;;13.40;8.33;;;;;;;8.69;51.03;101882.33;1679548;84;21076;-66
2021/10/08 08:37:11;;;;;;;21.70;8.43;;;;;;;8.81;51.18;101880.03;1675971;85;21059;-67
2021/10/08 08:39:39;;;;;;;11.75;7.62;;;;;;;8.91;49.92;101879.75;1666741;85;21164;-68
2021/10/08 08:42:06;;;;;;;19.52;9.50;;;;;;;9.02;49.94;101876.58;1613810;87;21082;-69
2021/10/08 08:44:35;;;;;;;16.20;8.55;;;;;;;9.13;48.91;101872.09;1670459;84;21119;-68
2021/10/08 08:47:04;;;;;;;14.43;7.92;;;;;;;9.27;47.39;101870.41;1626146;85;21518;-69
2021/10/08 08:49:31;;;;;;;17.82;7.45;;;;;;;9.38;46.90;101880.67;1675096;85;20998;-68
2021/10/08 08:51:57;;;;;;;9.35;6.70;;;;;;;9.47;46.99;101881.72;1643680;85;20958;-68
2021/10/08 08:54:24;;;;;;;15.03;6.33;;;;;;;9.56;46.28;101878.40;1656648;85;21120;-67
2021/10/08 08:56:50;;;;;;;18.25;10.28;;;;;;;9.60;45.90;101887.23;1668526;85;21196;-71
2021/10/08 08:59:16;;;;;;;14.07;7.87;;;;;;;9.68;46.37;101885.47;1621303;87;20992;-68
2021/10/08 09:02:01;;;;;;;14.33;7.92;;;;;;;9.79;46.10;101876.88;1666657;85;21002;-67
2021/10/08 09:04:30;;;;;;;18.40;7.75;;;;;;;9.83;45.12;101882.23;1702712;83;21048;-67
2021/10/08 09:06:56;;;;;;;13.78;8.28;;;;;;;9.85;44.81;101874.78;1658217;84;20976;-68
2021/10/08 09:09:24;;;;;;;14.95;6.90;;;;;;;9.90;44.68;101873.19;1715218;83;21099;-67
2021/10/08 09:11:55;;;;;;;9.85;6.40;;;;;;;9.91;44.43;101871.34;1698619;83;21004;-68
2021/10/08 09:14:27;;;;;;;12.65;7.83;;;;;;;9.93;44.45;101874.14;1688752;83;21044;-69
2021/10/08 09:17:18;;;;;;;;;;;;;;;9.93;44.68;101874.65;1661469;85;21087;-68
2021/10/08 09:19:57;;;;;;;21.02;7.50;;;;;;;9.98;44.74;101869.02;1705605;83;20202;-67
2021/10/08 09:22:49;;;;;;;13.90;7.40;;;;;;;10.10;44.83;101856.41;1656441;86;21108;-68
2021/10/08 09:25:30;;;;;;;15.43;8.00;;;;;;;10.23;44.69;101852.52;1700904;83;21009;-68
2021/10/08 09:28:03;;;;;;;19.32;7.33;;;;;;;10.39;44.19;101846.34;1695895;83;20993;-69
2021/10/08 09:30:40;;;;;;;16.32;6.53;;;;;;;10.55;43.92;101840.35;1687805;84;21134;-68
2021/10/08 09:33:13;;;;;;;14.28;8.20;;;;;;;10.66;43.09;101839.78;1673205;84;21533;-69
2021/10/08 09:35:40;;;;;;;8.70;5.37;;;;;;;10.74;43.09;101832.38;1631323;86;22989;-69
2021/10/08 09:38:11;;;;;;;8.85;5.97;;;;;;;10.80;42.17;101824.86;1657720;85;21064;-72
2021/10/08 09:40:48;;;;;;;8.98;4.90;;;;;;;10.89;42.64;101822.83;1690720;83;20998;-71
2021/10/08 09:43:27;;;;;;;43.68;6.90;;;;;;;11.03;39.82;101798.96;1694489;83;21016;-70
2021/10/08 09:46:00;;;;;;;18.85;5.47;;;;;;;11.15;39.19;101812.69;1690676;83;21330;-71
2021/10/08 09:48:35;;;;;;;19.15;5.33;;;;;;;11.21;38.18;101814.08;1690858;83;21033;-67
2021/10/08 09:51:14;;;;;;;10.03;4.08;;;;;;;11.26;38.57;101822.38;1696391;83;20977;-69
2021/10/08 09:53:55;;;;;;;14.63;5.62;;;;;;;11.28;37.97;101811.38;1688856;83;20941;-69
2021/10/08 09:56:41;;;;;;;7.60;4.37;;;;;;;11.35;38.36;101802.31;1689241;83;21487;-72
2021/10/08 09:59:12;;;;;;;20.77;5.78;;;;;;;11.38;37.15;101788.41;1658682;85;21052;-70
2021/10/08 10:01:42;;;;;;;15.45;5.42;;;;;;;11.47;36.52;101792.26;1689749;83;21272;-71
2021/10/08 10:04:09;;;;;;;8.53;4.20;;;;;;;11.50;36.08;101796.75;1689055;83;21552;-70
2021/10/08 10:06:42;;;;;;;13.10;4.53;;;;;;;11.58;36.38;101797.06;1663989;84;21510;-70
2021/10/08 10:09:08;;;;;;;7.50;3.55;;;;;;;11.66;36.13;101799.55;1647072;86;20962;-71
2021/10/08 10:11:36;;;;;;;4.58;3.42;;;;;;;11.74;36.11;101798.89;1656757;86;21030;-71
2021/10/08 10:14:03;;;;;;;7.30;3.95;;;;;;;11.85;35.86;101795.24;1626503;85;21112;-76
2021/10/08 10:16:33;;;;;;;7.80;3.67;;;;;;;11.95;35.99;101794.31;1675098;85;20993;-75
2021/10/08 10:19:01;;;;;;;16.10;7.53;;;;;;;11.99;35.03;101782.91;1690668;84;21557;-74
2021/10/08 10:21:35;;;;;;;13.70;6.12;;;;;;;12.03;34.57;101773.90;1700419;84;20977;-77
2021/10/08 10:24:02;;;;;;;14.35;4.92;;;;;;;12.06;34.55;101781.05;1669385;84;21586;-69
2021/10/08 10:26:33;;;;;;;7.33;3.83;;;;;;;12.12;34.85;101777.52;1644029;84;22243;-70
2021/10/08 10:28:59;;;;;;;13.68;3.42;;;;;;;12.23;34.60;101776.03;1672564;84;25037;-69
2021/10/08 10:31:27;;;;;;;6.95;3.10;;;;;;;12.29;34.54;101779.77;1656259;85;21574;-69
2021/10/08 10:34:00;;;;;;;10.48;3.45;;;;;;;12.34;33.87;101771.36;1691814;83;20977;-69
2021/10/08 10:36:36;;;;;;;8.25;3.58;;;;;;;12.37;34.35;101772.82;1674378;85;20993;-73
2021/10/08 10:39:16;;;;;;;4.25;3.22;;;;;;;12.43;34.54;101770.09;1666084;84;21035;-72
2021/10/08 10:41:45;;;;;;;6.25;3.25;;;;;;;12.49;34.09;101771.12;1673961;84;21067;-69
2021/10/08 10:44:18;;;;;;;13.65;4.10;;;;;;;12.53;33.57;101773.18;1655960;85;21514;-70
2021/10/08 10:49:27;;;;;;;9.05;2.80;;;;;;;12.65;32.56;101772.86;1627296;85;21069;-71
2021/10/08 10:52:02;;;;;;;19.50;3.37;;;;;;;12.70;32.06;101771.38;1673494;85;21668;-73
2021/10/08 10:54:49;;;;;;;10.85;4.78;;;;;;;12.72;31.45;101773.33;1658395;85;21029;-70
2021/10/08 10:57:14;;;;;;;20.72;4.17;;;;;;;12.76;31.95;101775.39;1659499;85;21045;-70
2021/10/08 10:59:40;;;;;;;14.20;4.15;;;;;;;12.85;31.97;101768.73;1672827;84;20989;-69
2021/10/08 11:02:15;;;;;;;8.15;2.85;;;;;;;12.96;31.37;101767.21;1674650;85;21022;-71
2021/10/08 11:04:48;;;;;;;8.75;4.33;;;;;;;13.03;30.88;101768.02;1646214;84;21041;-72
2021/10/08 11:07:23;;;;;;;6.65;3.30;;;;;;;13.08;30.88;101764.98;1703074;83;20934;-68
2021/10/08 11:10:13;;;;;;;8.75;2.98;;;;;;;13.18;31.41;101770.48;1708152;83;20938;-69
2021/10/08 11:12:42;;;;;;;11.75;3.08;;;;;;;13.30;31.46;101761.45;1678442;84;20994;-72
2021/10/08 11:15:21;;;;;;;4.15;2.15;;;;;;;13.43;31.43;101757.83;1708957;83;21021;-72
2021/10/08 11:17:57;;;;;;;5.25;2.72;;;;;;;13.44;31.22;101757.62;1743069;81;21043;-70
2021/10/08 11:20:43;;;;;;;6.20;3.08;;;;;;;13.33;31.20;101746.14;1720929;82;21533;-71
2021/10/08 11:23:26;;;;;;;9.13;3.42;;;;;;;13.18;31.34;101759.67;1683467;84;21498;-68
2021/10/08 11:25:56;;;;;;;12.18;3.83;;;;;;;13.15;31.49;101756.86;1768031;80;20933;-67
2021/10/08 11:28:31;;;;;;;18.80;3.77;;;;;;;13.11;30.00;101754.29;1761767;81;20993;-70
2021/10/08 11:30:57;;;;;;;8.93;2.83;;;;;;;13.16;30.09;101754.47;1727512;82;21153;-69